Time;durP1;ratioP1;P1;durP2;ratioP2;P2;SDS_P1;SDS_P2;PMS_P1;PMS_P2;Temp;Humidity;BMP_temperature;BMP_pressure;BME280_temperature;BME280_humidity;BME280_pressure;Samples;Min_cycle;Max_cycle;Signal;HPM_P1;HPM_P2
2022/03/18 00:02:22;;;;;;;3.47;3.10;;;18.90;46.20;;;;;;5126728;27;46844;-16
2022/03/18 00:04:49;;;;;;;3.25;2.95;;;18.90;46.10;;;;;;5126999;27;48162;-16
2022/03/18 00:07:17;;;;;;;4.15;2.95;;;18.90;46.20;;;;;;5126302;27;46856;-15
2022/03/18 00:09:43;;;;;;;3.40;3.10;;;18.90;46.30;;;;;;5126427;27;46828;-16
2022/03/18 00:12:11;;;;;;;3.08;2.88;;;18.90;46.30;;;;;;5126798;27;47110;-15
2022/03/18 00:14:39;;;;;;;3.10;2.78;;;18.90;46.80;;;;;;5126499;27;47889;-16
2022/03/18 00:17:07;;;;;;;3.03;2.70;;;18.90;46.30;;;;;;5126483;27;46997;-16
2022/03/18 00:19:33;;;;;;;3.40;3.03;;;18.90;46.20;;;;;;5126092;27;46842;-16
2022/03/18 00:22:01;;;;;;;3.28;2.83;;;18.90;46.20;;;;;;5126323;27;46863;-16
2022/03/18 00:24:31;;;;;;;2.70;2.50;;;18.90;46.10;;;;;;5126513;27;48814;-16
2022/03/18 00:26:58;;;;;;;2.60;2.40;;;18.90;46.20;;;;;;5126505;27;47444;-15
2022/03/18 00:29:25;;;;;;;3.03;2.75;;;18.80;46.10;;;;;;5126788;27;46822;-16
2022/03/18 00:31:51;;;;;;;3.45;2.92;;;18.80;46.30;;;;;;5126216;27;46934;-15
2022/03/18 00:34:18;;;;;;;2.97;2.63;;;18.80;46.30;;;;;;5126223;27;48123;-17
2022/03/18 00:36:45;;;;;;;3.10;2.85;;;18.80;46.20;;;;;;5126509;27;47284;-15
2022/03/18 00:39:12;;;;;;;3.65;2.90;;;18.80;46.30;;;;;;5126586;27;46986;-15
2022/03/18 00:41:40;;;;;;;3.03;2.72;;;18.80;46.30;;;;;;5126373;27;47060;-16
2022/03/18 00:44:07;;;;;;;2.55;2.35;;;18.80;46.30;;;;;;5126355;27;47008;-16
2022/03/18 00:46:33;;;;;;;2.50;2.30;;;18.80;46.90;;;;;;5125998;27;46895;-16
2022/03/18 00:54:28;;;;;;;2.33;2.22;;;18.80;46.30;;;;;;5123605;27;46894;-16
2022/03/18 00:56:56;;;;;;;2.63;2.42;;;18.80;46.30;;;;;;5126295;27;47432;-16
2022/03/18 00:59:23;;;;;;;2.70;2.50;;;18.80;46.40;;;;;;5126446;27;46828;-16
2022/03/18 01:01:52;;;;;;;2.65;2.42;;;18.80;46.50;;;;;;5126248;27;46916;-15
2022/03/18 01:04:19;;;;;;;3.00;2.70;;;18.80;46.40;;;;;;5126196;27;47827;-16
2022/03/18 01:06:45;;;;;;;2.45;2.25;;;18.80;46.60;;;;;;5125967;27;46919;-16
2022/03/18 01:09:12;;;;;;;2.50;2.30;;;18.80;46.60;;;;;;5126703;27;46737;-16
2022/03/18 01:11:39;;;;;;;2.58;2.28;;;18.80;46.50;;;;;;5126148;27;46891;-16
2022/03/18 01:14:07;;;;;;;2.80;2.40;;;18.80;46.40;;;;;;5125973;27;47916;-16
2022/03/18 01:16:33;;;;;;;2.90;2.67;;;18.70;46.40;;;;;;5125846;27;46923;-16
2022/03/18 01:19:00;;;;;;;2.50;2.30;;;18.80;46.50;;;;;;5126180;27;46852;-16
2022/03/18 01:21:27;;;;;;;2.60;2.40;;;18.70;46.40;;;;;;5126123;27;47132;-15
2022/03/18 01:23:54;;;;;;;2.83;2.50;;;18.80;46.40;;;;;;5126025;27;48877;-16
2022/03/18 01:26:20;;;;;;;3.78;2.90;;;18.80;46.40;;;;;;5125882;27;46986;-15
2022/03/18 01:28:47;;;;;;;3.10;2.30;;;18.70;46.30;;;;;;5125882;27;47004;-16
2022/03/18 01:31:15;;;;;;;2.50;2.40;;;18.70;46.20;;;;;;5126456;27;47026;-16
2022/03/18 01:33:42;;;;;;;2.65;2.45;;;18.70;46.30;;;;;;5129125;27;47878;-16
2022/03/18 01:36:09;;;;;;;2.67;2.30;;;18.70;46.30;;;;;;5129354;27;47189;-15
2022/03/18 01:38:35;;;;;;;2.50;2.30;;;18.70;46.30;;;;;;5129558;27;46851;-16
2022/03/18 01:41:02;;;;;;;2.35;2.15;;;18.70;46.40;;;;;;5129748;27;46961;-15
2022/03/18 01:43:29;;;;;;;2.85;2.65;;;18.70;46.40;;;;;;5129184;27;49051;-16
2022/03/18 01:45:55;;;;;;;2.50;2.30;;;18.70;46.30;;;;;;5129134;27;46864;-16
2022/03/18 01:48:24;;;;;;;3.63;2.30;;;18.60;46.30;;;;;;5129322;27;46824;-15
2022/03/18 01:50:50;;;;;;;2.72;2.50;;;18.70;46.50;;;;;;5129458;27;46989;-17
2022/03/18 01:53:17;;;;;;;2.30;2.10;;;18.70;46.50;;;;;;5129190;27;49112;-16
2022/03/18 01:55:44;;;;;;;2.47;2.28;;;18.70;46.50;;;;;;5129174;27;46898;-16
2022/03/18 01:58:11;;;;;;;2.80;2.35;;;18.70;46.50;;;;;;5128723;27;46905;-15
2022/03/18 02:00:37;;;;;;;2.60;2.40;;;18.60;46.50;;;;;;5129350;27;47241;-16
2022/03/18 02:03:04;;;;;;;2.88;2.15;;;18.70;46.60;;;;;;5128928;27;46959;-15
2022/03/18 02:05:32;;;;;;;2.13;1.92;;;18.60;46.60;;;;;;5128952;27;47149;-16
2022/03/18 02:08:01;;;;;;;2.78;2.58;;;18.60;46.60;;;;;;5128935;27;46906;-15
2022/03/18 02:10:27;;;;;;;2.30;2.10;;;18.60;46.50;;;;;;5128568;27;46891;-16
2022/03/18 02:12:54;;;;;;;2.70;2.50;;;18.60;46.50;;;;;;5128752;27;48896;-15
2022/03/18 02:15:21;;;;;;;2.30;2.20;;;18.60;46.50;;;;;;5128729;27;47013;-17
2022/03/18 02:17:47;;;;;;;2.33;2.13;;;18.60;46.50;;;;;;5128553;27;47076;-15
2022/03/18 02:20:14;;;;;;;2.58;2.10;;;18.60;46.50;;;;;;5129098;27;47185;-16
2022/03/18 02:22:42;;;;;;;3.42;2.45;;;18.60;46.50;;;;;;5128540;27;47853;-15
2022/03/18 02:25:12;;;;;;;2.65;2.45;;;18.60;46.50;;;;;;5128624;27;46792;-16
2022/03/18 02:27:38;;;;;;;2.60;2.40;;;18.60;46.70;;;;;;5128424;27;46862;-15
2022/03/18 02:30:06;;;;;;;2.20;2.03;;;18.60;46.50;;;;;;5128888;27;47291;-16
2022/03/18 02:32:34;;;;;;;2.30;2.10;;;18.60;46.50;;;;;;5128118;27;49210;-16
2022/03/18 02:35:01;;;;;;;3.20;2.40;;;18.60;46.50;;;;;;5128448;27;47590;-16
2022/03/18 02:37:28;;;;;;;2.45;2.25;;;18.60;46.50;;;;;;5128625;27;47097;-15
2022/03/18 02:39:56;;;;;;;2.45;2.25;;;18.60;46.40;;;;;;5128776;27;46896;-16
2022/03/18 02:42:23;;;;;;;2.15;2.05;;;18.60;47.10;;;;;;5128192;27;49080;-16
2022/03/18 02:44:50;;;;;;;2.85;2.17;;;18.60;46.30;;;;;;5127765;27;47410;-17
2022/03/18 02:47:16;;;;;;;2.88;2.00;;;18.60;46.40;;;;;;5128225;27;46878;-16
2022/03/18 02:49:43;;;;;;;2.55;2.20;;;18.60;46.40;;;;;;5128346;27;46996;-17
2022/03/18 02:52:10;;;;;;;2.10;1.92;;;18.60;46.40;;;;;;5127905;27;48395;-16
2022/03/18 02:54:37;;;;;;;2.30;2.10;;;18.60;46.40;;;;;;5128148;27;46906;-16
2022/03/18 02:57:05;;;;;;;2.25;2.05;;;18.60;46.50;;;;;;5128108;27;46891;-16
2022/03/18 02:59:33;;;;;;;2.00;1.90;;;18.60;46.40;;;;;;5128336;27;46809;-16
2022/03/18 03:01:59;;;;;;;2.10;2.00;;;18.50;46.50;;;;;;5127642;27;47952;-16
2022/03/18 03:04:26;;;;;;;2.25;2.05;;;18.50;46.50;;;;;;5128076;27;46957;-17
2022/03/18 03:09:37;;;;;;;2.20;1.83;;;18.50;46.60;;;;;;5125465;27;46799;-16
2022/03/18 03:12:06;;;;;;;2.40;2.20;;;18.50;46.60;;;;;;5127349;27;48090;-16
2022/03/18 03:14:33;;;;;;;1.75;1.65;;;18.50;46.60;;;;;;5128017;27;47440;-16
2022/03/18 03:16:59;;;;;;;2.13;1.92;;;18.50;46.60;;;;;;5127738;27;46996;-16
2022/03/18 03:19:26;;;;;;;2.47;2.05;;;18.50;46.60;;;;;;5127905;27;46906;-15
2022/03/18 03:21:53;;;;;;;2.10;1.90;;;18.50;46.50;;;;;;5127359;27;47875;-16
2022/03/18 03:24:19;;;;;;;2.25;1.98;;;18.50;46.60;;;;;;5127331;27;46813;-16
2022/03/18 03:26:46;;;;;;;2.28;2.08;;;18.50;46.50;;;;;;5127527;27;46908;-16
2022/03/18 03:29:14;;;;;;;2.35;2.15;;;18.50;46.50;;;;;;5127940;27;46978;-16
2022/03/18 03:31:41;;;;;;;2.20;2.00;;;18.50;46.40;;;;;;5127062;27;48209;-16
2022/03/18 03:34:07;;;;;;;2.30;2.10;;;18.50;46.60;;;;;;5127523;27;46914;-16
2022/03/18 03:36:34;;;;;;;1.95;1.85;;;18.50;46.60;;;;;;5127263;27;46836;-15
2022/03/18 03:39:01;;;;;;;2.88;1.85;;;18.50;46.50;;;;;;5127668;27;47284;-16
2022/03/18 03:41:27;;;;;;;2.00;1.90;;;18.50;46.60;;;;;;5127300;27;48107;-15
2022/03/18 03:43:54;;;;;;;1.90;1.80;;;18.50;46.50;;;;;;5127302;27;46884;-15
2022/03/18 03:46:22;;;;;;;1.83;1.73;;;18.50;46.50;;;;;;5126885;27;47001;-16
2022/03/18 03:48:49;;;;;;;1.98;1.77;;;18.50;46.60;;;;;;5127290;27;46909;-16
2022/03/18 03:51:16;;;;;;;2.15;1.70;;;18.50;46.60;;;;;;5126810;27;46916;-15
2022/03/18 03:53:42;;;;;;;1.90;1.80;;;18.50;46.60;;;;;;5127191;27;46945;-15
2022/03/18 03:56:09;;;;;;;2.72;2.05;;;18.50;46.60;;;;;;5126065;27;46956;-15
2022/03/18 03:58:36;;;;;;;1.85;1.75;;;18.40;46.40;;;;;;5127546;27;47042;-16
2022/03/18 04:01:03;;;;;;;1.80;1.70;;;18.50;46.60;;;;;;5126720;27;48995;-15
2022/03/18 04:03:32;;;;;;;3.17;1.90;;;18.40;46.40;;;;;;5126893;27;47555;-16
2022/03/18 04:05:59;;;;;;;1.98;1.88;;;18.40;46.50;;;;;;5127069;27;46898;-16
2022/03/18 04:08:25;;;;;;;1.85;1.75;;;18.40;46.70;;;;;;5127293;27;47328;-17
2022/03/18 04:10:54;;;;;;;2.22;2.03;;;18.40;46.70;;;;;;5126461;27;47868;-17
2022/03/18 04:13:21;;;;;;;1.90;1.80;;;18.40;46.70;;;;;;5126965;27;47152;-16
2022/03/18 04:15:48;;;;;;;1.80;1.70;;;18.40;46.70;;;;;;5127067;27;46908;-15
2022/03/18 04:18:14;;;;;;;1.70;1.60;;;18.40;47.30;;;;;;5127127;27;46910;-16
2022/03/18 04:20:42;;;;;;;1.90;1.80;;;18.40;46.70;;;;;;5127017;27;48884;-16
2022/03/18 04:23:09;;;;;;;2.20;1.60;;;18.40;46.70;;;;;;5126502;27;46785;-16
2022/03/18 04:25:36;;;;;;;2.20;2.00;;;18.40;46.70;;;;;;5126974;27;46908;-16
2022/03/18 04:28:03;;;;;;;2.42;1.92;;;18.40;46.70;;;;;;5126986;27;46769;-16
2022/03/18 04:30:29;;;;;;;2.90;1.77;;;18.40;46.80;;;;;;5126657;27;48224;-16
2022/03/18 04:32:56;;;;;;;2.70;2.10;;;18.40;46.60;;;;;;5126208;27;46912;-15
2022/03/18 04:35:23;;;;;;;1.80;1.70;;;18.40;46.70;;;;;;5126652;27;46803;-16
2022/03/18 04:37:51;;;;;;;2.35;1.60;;;18.40;46.70;;;;;;5126921;27;46890;-16
2022/03/18 04:40:18;;;;;;;1.60;1.50;;;18.40;46.70;;;;;;5126335;27;48122;-15
2022/03/18 04:42:45;;;;;;;1.80;1.70;;;18.40;46.70;;;;;;5126234;27;46916;-15
2022/03/18 04:45:12;;;;;;;1.70;1.60;;;18.40;46.70;;;;;;5126342;27;46874;-15
2022/03/18 04:47:38;;;;;;;1.80;1.70;;;18.40;46.60;;;;;;5126751;27;47107;-15
2022/03/18 04:50:06;;;;;;;1.73;1.63;;;18.40;46.70;;;;;;5126851;27;47029;-16
2022/03/18 04:52:32;;;;;;;1.73;1.63;;;18.40;46.70;;;;;;5126624;27;46801;-15
2022/03/18 04:55:00;;;;;;;1.75;1.60;;;18.40;46.70;;;;;;5126535;27;46925;-17
2022/03/18 04:57:27;;;;;;;1.70;1.60;;;18.40;46.70;;;;;;5126366;27;47177;-16
2022/03/18 04:59:54;;;;;;;2.13;1.70;;;18.30;46.60;;;;;;5126690;27;46991;-16
2022/03/18 05:02:21;;;;;;;1.80;1.70;;;18.40;46.60;;;;;;5126118;27;47175;-16
2022/03/18 05:04:48;;;;;;;2.38;1.65;;;18.40;46.60;;;;;;5126445;27;46886;-15
2022/03/18 05:07:15;;;;;;;2.05;1.60;;;18.30;46.50;;;;;;5128216;27;46889;-16
2022/03/18 05:09:42;;;;;;;1.70;1.60;;;18.30;46.60;;;;;;5129338;27;47841;-16
2022/03/18 05:12:11;;;;;;;1.55;1.40;;;18.30;46.50;;;;;;5129886;27;47194;-16
2022/03/18 05:14:38;;;;;;;1.77;1.67;;;18.30;46.70;;;;;;5129677;27;46879;-16
2022/03/18 05:17:05;;;;;;;1.65;1.40;;;18.30;46.60;;;;;;5129599;27;46882;-16
2022/03/18 05:19:31;;;;;;;1.60;1.50;;;18.30;46.70;;;;;;5129728;27;47866;-15
2022/03/18 05:21:58;;;;;;;1.88;1.77;;;18.30;46.70;;;;;;5129552;27;46979;-15
2022/03/18 05:24:26;;;;;;;1.55;1.30;;;18.30;46.70;;;;;;5129756;27;46790;-17
2022/03/18 05:26:53;;;;;;;2.97;1.50;;;18.30;46.70;;;;;;5129529;27;47088;-17
2022/03/18 05:29:21;;;;;;;1.95;1.70;;;18.30;46.60;;;;;;5129429;27;48305;-16
2022/03/18 05:31:48;;;;;;;1.60;1.50;;;18.30;46.60;;;;;;5129482;27;47258;-16
2022/03/18 05:34:14;;;;;;;1.98;1.67;;;18.30;46.70;;;;;;5129447;27;46868;-15
2022/03/18 05:36:41;;;;;;;1.65;1.50;;;18.30;46.60;;;;;;5129493;27;46934;-15
2022/03/18 05:39:08;;;;;;;1.85;1.70;;;18.30;46.60;;;;;;5129417;27;47830;-15
2022/03/18 05:41:35;;;;;;;1.85;1.75;;;18.30;46.60;;;;;;5129040;27;46894;-16
2022/03/18 05:44:02;;;;;;;1.90;1.60;;;18.30;46.50;;;;;;5129184;27;47169;-16
2022/03/18 05:46:30;;;;;;;1.90;1.70;;;18.30;46.60;;;;;;5129461;27;47292;-15
2022/03/18 05:48:57;;;;;;;1.55;1.48;;;18.30;46.50;;;;;;5128820;27;46814;-16
2022/03/18 05:51:24;;;;;;;1.70;1.60;;;18.30;46.60;;;;;;5128767;27;47204;-16
2022/03/18 05:53:51;;;;;;;1.70;1.50;;;18.30;46.50;;;;;;5128891;27;46847;-16
2022/03/18 05:59:02;;;;;;;1.85;1.70;;;18.30;46.50;;;;;;5126322;27;47542;-15
2022/03/18 06:01:30;;;;;;;1.90;1.52;;;18.30;46.50;;;;;;5129075;27;46905;-16
2022/03/18 06:03:57;;;;;;;1.63;1.52;;;18.30;46.50;;;;;;5129145;27;46908;-16
2022/03/18 06:06:23;;;;;;;1.98;1.70;;;18.30;46.50;;;;;;5128967;27;46892;-15
2022/03/18 06:11:49;;;;;;;1.55;1.45;;;18.20;46.60;;;;;;5128535;27;46977;-16
2022/03/18 06:14:16;;;;;;;1.60;1.50;;;18.20;46.40;;;;;;5128789;27;46757;-16
2022/03/18 06:16:44;;;;;;;1.90;1.60;;;18.20;46.50;;;;;;5128897;27;47020;-16
2022/03/18 06:19:13;;;;;;;1.77;1.67;;;18.20;46.60;;;;;;5127747;27;49058;-16
2022/03/18 06:21:40;;;;;;;1.50;1.40;;;18.20;46.60;;;;;;5128893;27;47128;-15
2022/03/18 06:24:08;;;;;;;1.58;1.48;;;18.20;46.60;;;;;;5128838;27;46883;-16
2022/03/18 06:26:35;;;;;;;1.55;1.45;;;18.20;46.60;;;;;;5129031;27;47182;-16
2022/03/18 06:29:02;;;;;;;1.67;1.55;;;18.20;46.60;;;;;;5128354;27;47860;-16
2022/03/18 06:31:28;;;;;;;1.63;1.38;;;18.20;46.50;;;;;;5128460;27;46941;-15
2022/03/18 06:33:56;;;;;;;1.65;1.55;;;18.20;46.60;;;;;;5128492;27;46793;-16
2022/03/18 06:36:23;;;;;;;1.70;1.58;;;18.20;46.60;;;;;;5128632;27;47280;-16
2022/03/18 06:38:50;;;;;;;1.60;1.50;;;18.20;46.60;;;;;;5128674;27;47927;-16
2022/03/18 06:41:19;;;;;;;3.67;1.58;;;18.20;46.60;;;;;;5128166;27;46813;-16
2022/03/18 06:43:45;;;;;;;1.80;1.48;;;18.20;46.60;;;;;;5128136;27;46927;-16
2022/03/18 06:46:12;;;;;;;1.70;1.60;;;18.20;46.60;;;;;;5128617;27;47211;-16
2022/03/18 06:48:39;;;;;;;1.50;1.40;;;18.20;46.50;;;;;;5128253;27;48881;-17
2022/03/18 06:51:07;;;;;;;1.85;1.65;;;18.20;46.50;;;;;;5128505;27;46915;-16
2022/03/18 06:53:34;;;;;;;1.70;1.60;;;18.20;46.50;;;;;;5128518;27;46906;-16
2022/03/18 06:56:01;;;;;;;1.77;1.58;;;18.20;46.50;;;;;;5138273;27;47033;-16
2022/03/18 06:58:28;;;;;;;1.67;1.35;;;18.20;46.50;;;;;;5148502;27;48787;-16
2022/03/18 07:00:55;;;;;;;1.40;1.30;;;18.20;46.50;;;;;;5148321;27;47017;-16
2022/03/18 07:03:22;;;;;;;1.88;1.65;;;18.20;46.40;;;;;;5148887;27;46881;-16
2022/03/18 07:05:48;;;;;;;1.92;1.60;;;18.20;46.60;;;;;;5149166;27;46944;-15
2022/03/18 07:08:16;;;;;;;2.72;1.70;;;18.20;46.60;;;;;;5148683;27;47899;-16
2022/03/18 07:10:43;;;;;;;1.63;1.52;;;18.20;46.70;;;;;;5148080;27;46982;-16
2022/03/18 07:13:10;;;;;;;1.83;1.70;;;18.20;46.70;;;;;;5148273;27;46939;-16
2022/03/18 07:15:37;;;;;;;1.83;1.60;;;18.20;46.70;;;;;;5148884;27;46899;-17
2022/03/18 07:18:03;;;;;;;2.05;1.70;;;18.20;46.70;;;;;;5148397;27;47912;-17
2022/03/18 07:20:31;;;;;;;2.42;1.70;;;18.30;46.80;;;;;;5148534;27;46825;-16
2022/03/18 07:23:02;;;;;;;3.03;1.67;;;18.30;46.80;;;;;;5147871;27;46908;-16
2022/03/18 07:25:30;;;;;;;1.92;1.70;;;18.20;46.80;;;;;;5148402;27;46885;-16
2022/03/18 07:27:57;;;;;;;1.83;1.42;;;18.30;46.40;;;;;;5145407;27;46895;-16
2022/03/18 07:30:24;;;;;;;2.88;1.70;;;18.20;46.50;;;;;;5147577;27;47393;-16
2022/03/18 07:32:51;;;;;;;2.33;1.75;;;18.30;46.70;;;;;;5147791;27;47105;-16
2022/03/18 07:35:18;;;;;;;1.80;1.63;;;18.30;46.40;;;;;;5147711;27;47152;-17
2022/03/18 07:37:45;;;;;;;4.78;1.80;;;18.30;46.70;;;;;;5147934;27;49088;-16
2022/03/18 07:40:12;;;;;;;1.77;1.60;;;18.30;46.60;;;;;;5148186;27;46875;-16
2022/03/18 07:42:43;;;;;;;2.65;1.63;;;18.30;46.60;;;;;;5148343;27;46914;-16
2022/03/18 07:45:11;;;;;;;1.50;1.40;;;18.30;46.60;;;;;;5147220;27;46869;-17
2022/03/18 07:47:37;;;;;;;3.42;1.80;;;18.30;46.50;;;;;;5148037;27;46874;-16
2022/03/18 07:50:05;;;;;;;2.45;1.67;;;18.30;46.50;;;;;;5147994;27;46845;-17
2022/03/18 07:52:32;;;;;;;2.58;1.83;;;18.30;46.50;;;;;;5148146;27;46959;-20
2022/03/18 07:54:59;;;;;;;2.03;1.73;;;18.30;46.40;;;;;;5147448;27;46950;-20
2022/03/18 07:57:26;;;;;;;3.25;1.85;;;18.30;46.50;;;;;;5147784;27;46803;-21
2022/03/18 07:59:54;;;;;;;4.82;2.00;;;18.30;46.40;;;;;;5163105;27;46908;-21
2022/03/18 08:02:22;;;;;;;7.03;1.73;;;18.30;46.50;;;;;;5168719;27;47040;-20
2022/03/18 08:04:51;;;;;;;3.63;1.90;;;18.30;46.40;;;;;;5168897;27;46925;-18
2022/03/18 08:07:18;;;;;;;1.85;1.60;;;18.30;46.30;;;;;;5146980;27;47829;-16
2022/03/18 08:09:44;;;;;;;2.50;1.80;;;18.30;46.10;;;;;;5146980;27;46881;-17
2022/03/18 08:12:12;;;;;;;3.50;1.55;;;18.30;46.50;;;;;;5147387;27;46991;-17
2022/03/18 08:14:39;;;;;;;4.50;1.85;;;18.40;46.20;;;;;;5147367;27;46976;-17
2022/03/18 08:17:07;;;;;;;4.07;1.73;;;18.30;46.50;;;;;;5146827;27;47311;-16
2022/03/18 08:19:34;;;;;;;2.47;1.60;;;18.40;46.50;;;;;;5145755;27;47139;-17
2022/03/18 08:22:01;;;;;;;7.22;1.70;;;18.40;46.50;;;;;;5146814;27;46951;-16
2022/03/18 08:24:28;;;;;;;2.25;1.63;;;18.40;46.70;;;;;;5147781;27;46941;-17
2022/03/18 08:26:55;;;;;;;6.90;1.73;;;18.40;46.60;;;;;;5147396;27;46989;-21
2022/03/18 08:29:22;;;;;;;5.25;2.03;;;18.40;46.70;;;;;;5147274;27;46896;-16
2022/03/18 08:31:48;;;;;;;8.18;2.00;;;18.40;46.90;;;;;;5147858;27;46820;-21
2022/03/18 08:34:16;;;;;;;11.07;2.15;;;18.40;47.70;;;;;;5147422;27;46825;-20
2022/03/18 08:36:43;;;;;;;6.65;1.92;;;18.40;48.20;;;;;;5146909;27;46804;-21
2022/03/18 08:39:10;;;;;;;6.82;1.65;;;18.50;48.10;;;;;;5147365;27;47415;-21
2022/03/18 08:41:37;;;;;;;4.82;1.60;;;18.60;48.20;;;;;;5149861;27;46799;-21
2022/03/18 08:44:04;;;;;;;7.28;2.28;;;18.60;48.00;;;;;;5153317;27;47150;-21
2022/03/18 08:46:33;;;;;;;13.52;2.20;;;18.60;47.90;;;;;;5153748;27;48219;-20
2022/03/18 08:49:00;;;;;;;6.18;2.03;;;18.70;47.70;;;;;;5153771;27;47127;-21
2022/03/18 08:51:28;;;;;;;6.28;2.00;;;18.70;47.70;;;;;;5146604;27;46838;-19
2022/03/18 08:53:55;;;;;;;11.68;2.55;;;18.80;47.70;;;;;;5133091;27;47290;-19
2022/03/18 08:56:21;;;;;;;5.75;3.25;;;18.80;47.30;;;;;;5132773;27;48233;-20
2022/03/18 08:58:50;;;;;;;13.20;3.67;;;18.80;47.40;;;;;;5152790;27;47022;-22
2022/03/18 09:01:17;;;;;;;11.00;4.00;;;18.80;47.30;;;;;;5152626;27;46875;-21
2022/03/18 09:03:45;;;;;;;8.57;4.10;;;18.80;47.30;;;;;;5154769;27;46952;-18
2022/03/18 09:06:14;;;;;;;11.15;3.88;;;18.80;46.90;;;;;;5151841;27;48019;-16
2022/03/18 09:08:42;;;;;;;9.43;4.30;;;18.80;46.80;;;;;;5152780;27;47014;-16
2022/03/18 09:11:09;;;;;;;15.23;4.40;;;18.90;46.80;;;;;;5152326;27;47046;-15
2022/03/18 09:13:36;;;;;;;5.10;3.53;;;18.90;46.70;;;;;;5152333;27;47037;-15
2022/03/18 09:16:03;;;;;;;5.35;2.85;;;18.90;46.20;;;;;;5153178;27;49138;-15
2022/03/18 09:18:29;;;;;;;4.85;2.80;;;18.80;45.90;;;;;;5153665;27;47125;-16
2022/03/18 09:20:56;;;;;;;2.97;2.58;;;18.80;46.00;;;;;;5153534;27;46791;-15
2022/03/18 09:23:23;;;;;;;4.97;2.58;;;18.80;46.00;;;;;;5153985;27;47321;-15
2022/03/18 09:25:51;;;;;;;5.25;2.70;;;18.80;46.00;;;;;;5153722;27;48323;-16
2022/03/18 09:28:18;;;;;;;3.35;2.50;;;18.80;46.00;;;;;;5153267;27;47042;-15
2022/03/18 09:30:44;;;;;;;2.80;2.50;;;18.80;46.00;;;;;;5152541;27;47084;-15
2022/03/18 09:33:11;;;;;;;4.55;2.72;;;18.80;46.00;;;;;;5153769;27;46929;-15
2022/03/18 09:35:38;;;;;;;4.70;2.53;;;18.70;46.00;;;;;;5153093;27;48046;-15
2022/03/18 09:38:05;;;;;;;4.70;2.25;;;18.70;46.10;;;;;;5153428;27;47028;-16
2022/03/18 09:40:32;;;;;;;4.47;2.80;;;18.70;46.10;;;;;;5153597;27;46873;-17
2022/03/18 09:43:01;;;;;;;5.50;2.80;;;18.70;46.10;;;;;;5134266;27;47248;-15
2022/03/18 09:45:31;;;;;;;3.72;2.28;;;18.70;46.20;;;;;;5131885;27;48292;-16
2022/03/18 09:47:59;;;;;;;4.60;2.60;;;18.70;45.90;;;;;;5132480;27;46990;-16
2022/03/18 09:50:25;;;;;;;5.90;2.70;;;18.70;46.00;;;;;;5131788;27;46887;-15
2022/03/18 09:52:52;;;;;;;3.28;2.78;;;18.70;46.10;;;;;;5130559;27;46916;-15
2022/03/18 09:55:19;;;;;;;6.68;3.13;;;18.70;46.10;;;;;;5128548;27;48793;-15
2022/03/18 09:57:46;;;;;;;5.47;3.40;;;18.70;46.10;;;;;;5129369;27;46998;-19
2022/03/18 10:00:15;;;;;;;4.57;3.65;;;18.70;46.00;;;;;;5128784;27;46934;-20
2022/03/18 10:02:42;;;;;;;4.68;3.20;;;18.70;46.10;;;;;;5128228;27;47005;-19
2022/03/18 10:05:10;;;;;;;7.05;3.35;;;18.70;46.10;;;;;;5126976;27;46849;-20
2022/03/18 10:07:37;;;;;;;5.57;3.28;;;18.70;46.00;;;;;;5127108;27;47275;-19
2022/03/18 10:10:08;;;;;;;5.65;3.35;;;18.70;46.00;;;;;;5126679;27;46906;-20
2022/03/18 10:12:36;;;;;;;5.05;3.42;;;18.70;46.00;;;;;;5127669;27;46962;-20
2022/03/18 10:15:11;;;;;;;5.18;3.22;;;18.70;46.00;;;;;;5126604;27;46931;-20
2022/03/18 10:17:41;;;;;;;3.78;3.38;;;18.70;46.00;;;;;;5126315;27;46964;-20
2022/03/18 10:20:09;;;;;;;4.53;3.90;;;18.70;46.00;;;;;;5126614;27;47315;-20
2022/03/18 10:22:36;;;;;;;5.35;3.30;;;18.70;46.00;;;;;;5128703;27;46919;-20
2022/03/18 10:25:04;;;;;;;4.75;3.25;;;18.70;46.00;;;;;;5128248;27;48710;-20
2022/03/18 10:27:32;;;;;;;4.38;3.60;;;18.80;46.00;;;;;;5128319;27;47275;-20
2022/03/18 10:29:59;;;;;;;4.65;3.30;;;18.80;46.00;;;;;;5128197;27;46905;-20
2022/03/18 10:32:27;;;;;;;5.53;3.67;;;18.80;45.90;;;;;;5128795;27;46867;-20
2022/03/18 10:37:41;;;;;;;9.05;5.50;;;18.90;45.60;;;;;;5125683;27;46938;-20
2022/03/18 10:40:08;;;;;;;8.20;5.72;;;18.90;45.60;;;;;;5128770;27;47425;-20
2022/03/18 10:42:35;;;;;;;9.93;6.50;;;18.90;45.30;;;;;;5128583;27;46869;-20
2022/03/18 10:45:02;;;;;;;10.23;6.75;;;18.90;45.20;;;;;;5126744;27;48224;-20
2022/03/18 10:47:31;;;;;;;11.23;7.47;;;18.90;45.10;;;;;;5127867;27;46955;-20
2022/03/18 10:50:24;;;;;;;11.00;7.88;;;18.90;45.00;;;;;;5127823;27;46855;-20
2022/03/18 10:53:08;;;;;;;10.20;6.65;;;18.90;44.90;;;;;;5128281;27;46958;-20
2022/03/18 10:55:36;;;;;;;12.63;8.02;;;18.90;44.90;;;;;;5127700;27;46959;-20
2022/03/18 10:58:04;;;;;;;17.33;8.48;;;18.80;44.80;;;;;;5127853;27;47428;-19
2022/03/18 11:00:32;;;;;;;9.15;7.70;;;18.80;44.80;;;;;;5127988;27;46920;-20
2022/03/18 11:03:00;;;;;;;12.13;8.30;;;18.80;44.60;;;;;;5129641;27;47710;-20
2022/03/18 11:05:31;;;;;;;9.45;8.30;;;18.80;44.60;;;;;;5147457;27;46896;-20
2022/03/18 11:07:58;;;;;;;11.27;8.10;;;18.80;44.50;;;;;;5149031;27;47251;-15
2022/03/18 11:13:09;;;;;;;12.38;8.10;;;18.80;44.30;;;;;;5124919;27;46813;-16
2022/03/18 11:15:39;;;;;;;13.43;8.95;;;18.80;44.30;;;;;;5127576;27;46901;-15
2022/03/18 11:18:06;;;;;;;12.18;9.20;;;18.80;44.30;;;;;;5127767;27;47051;-15
2022/03/18 11:20:42;;;;;;;12.32;9.52;;;18.90;44.10;;;;;;5127650;27;47151;-16
2022/03/18 11:23:11;;;;;;;10.32;8.70;;;18.90;44.10;;;;;;5126764;27;47193;-20
2022/03/18 11:25:38;;;;;;;11.32;9.10;;;18.90;44.00;;;;;;5127303;27;49043;-20
2022/03/18 11:28:05;;;;;;;11.57;9.90;;;19.00;44.00;;;;;;5127199;27;46836;-20
2022/03/18 11:30:34;;;;;;;13.98;9.48;;;19.00;43.90;;;;;;5127605;27;46922;-20
2022/03/18 11:33:21;;;;;;;12.88;8.93;;;19.00;43.70;;;;;;5127560;27;47078;-20
2022/03/18 11:36:09;;;;;;;11.10;9.57;;;19.00;43.70;;;;;;5127123;27;49044;-19
2022/03/18 11:39:07;;;;;;;10.38;8.70;;;19.10;43.60;;;;;;5126999;27;46908;-20
2022/03/18 11:41:53;;;;;;;12.95;8.60;;;19.10;44.30;;;;;;5043595;28;46944;-20
2022/03/18 11:44:38;;;;;;;12.02;8.45;;;19.10;43.50;;;;;;5118873;27;47202;-20
2022/03/18 11:47:45;;;;;;;11.95;9.00;;;19.10;43.50;;;;;;5111498;27;49031;-19
2022/03/18 11:50:37;;;;;;;12.52;8.57;;;19.10;43.40;;;;;;5127028;27;46870;-19
2022/03/18 11:53:06;;;;;;;15.18;9.70;;;19.20;43.20;;;;;;5126579;27;47178;-20
2022/03/18 11:55:33;;;;;;;16.73;9.40;;;19.30;43.80;;;;;;5148109;27;46893;-21
2022/03/18 11:57:59;;;;;;;14.43;11.13;;;19.30;44.10;;;;;;5147805;27;48359;-20
2022/03/18 12:00:43;;;;;;;19.73;14.02;;;19.40;44.10;;;;;;5127322;27;46742;-21
2022/03/18 12:03:18;;;;;;;19.30;12.52;;;19.50;44.00;;;;;;5125881;27;47051;-20
2022/03/18 12:05:52;;;;;;;24.77;12.30;;;19.60;43.90;;;;;;5127331;27;47141;-20
2022/03/18 12:08:20;;;;;;;23.42;11.23;;;19.60;43.50;;;;;;5127121;27;49064;-20
2022/03/18 12:10:47;;;;;;;15.02;9.35;;;19.70;43.30;;;;;;5126870;27;46944;-20
2022/03/18 12:13:13;;;;;;;14.80;9.63;;;19.70;43.00;;;;;;5126510;27;46965;-20
2022/03/18 12:15:41;;;;;;;20.77;9.63;;;19.80;42.80;;;;;;5126366;27;47307;-20
2022/03/18 12:18:08;;;;;;;12.48;9.13;;;19.80;42.50;;;;;;5126095;27;48801;-20
2022/03/18 12:20:36;;;;;;;16.23;9.50;;;19.90;42.50;;;;;;5126639;27;46979;-21
2022/03/18 12:23:04;;;;;;;12.40;9.27;;;19.90;42.30;;;;;;5126577;27;46926;-20
2022/03/18 12:25:32;;;;;;;11.82;8.25;;;19.90;42.40;;;;;;5126210;27;46868;-20
2022/03/18 12:27:59;;;;;;;11.05;8.60;;;19.90;42.20;;;;;;5126716;27;47861;-20
2022/03/18 12:30:27;;;;;;;10.77;7.95;;;20.00;42.30;;;;;;5126375;27;46827;-20
2022/03/18 12:32:54;;;;;;;11.80;8.50;;;20.00;42.40;;;;;;5126364;27;46930;-19
2022/03/18 12:35:25;;;;;;;11.45;8.35;;;20.00;42.40;;;;;;5134362;27;47154;-20
2022/03/18 12:38:03;;;;;;;11.90;8.13;;;20.10;42.50;;;;;;5127659;27;48799;-20
2022/03/18 12:40:31;;;;;;;9.70;7.07;;;20.10;42.60;;;;;;5138074;27;46904;-20
2022/03/18 12:42:59;;;;;;;10.52;7.47;;;20.10;42.60;;;;;;5145687;27;47089;-20
2022/03/18 12:45:27;;;;;;;10.70;7.88;;;20.10;42.50;;;;;;5147619;27;47140;-19
2022/03/18 12:47:55;;;;;;;9.18;7.80;;;20.20;42.40;;;;;;5147026;27;48226;-21
2022/03/18 12:50:25;;;;;;;8.80;7.45;;;20.20;42.20;;;;;;5147431;27;47184;-20
2022/03/18 12:52:52;;;;;;;9.52;7.78;;;20.20;42.00;;;;;;5147389;27;46876;-20
2022/03/18 12:55:21;;;;;;;11.15;7.95;;;20.30;42.00;;;;;;5147525;27;46986;-21
2022/03/18 12:57:49;;;;;;;18.15;11.00;;;20.30;42.20;;;;;;5146896;27;48959;-21
2022/03/18 13:00:17;;;;;;;18.90;12.15;;;20.60;41.50;;;;;;5147283;27;46899;-23
2022/03/18 13:02:44;;;;;;;16.23;11.98;;;20.70;40.30;;;;;;5146965;27;46899;-22
2022/03/18 13:05:13;;;;;;;16.00;11.85;;;20.80;39.50;;;;;;5145711;27;47066;-25
2022/03/18 13:07:40;;;;;;;16.80;13.57;;;20.80;39.00;;;;;;5146174;27;49135;-28
2022/03/18 13:10:07;;;;;;;14.38;11.77;;;20.80;39.30;;;;;;5145693;27;47244;-25